Home   Weather   Spain   Ibiza   Past weeks
Flag for Spain

Past Weather in Ibiza, Ibiza, Spain — Yesterday and Last 2 Weeks

Currently: 82 °F. Clear. (Weather station: Ibiza / Es Codola, Spain). See more current weather

Past Weather in Ibiza — Graph

°F

Ibiza Temperature Yesterday

Maximum temperature yesterday: 90 °F (at 11:30 am)
Minimum temperature yesterday: 73 °F (at 5:00 am)
Average temperature yesterday: 83 °F

High & Low Weather Summary for the Past Weeks

 TemperatureHumidityPressure
High93 °F (Aug 2, 2:00 pm)94% (Aug 3, 5:30 am)30.09 "Hg (Aug 3, 5:30 am)
Low73 °F (Aug 1, 4:00 am)30% (Aug 2, 2:00 pm)29.86 "Hg (Jul 27, 7:00 pm)
Average83 °F70%29.97 "Hg
* Reported Jul 25 11:30 pm — Aug 9 11:00 pm, Ibiza. Weather by CustomWeather, © 2022

Note: Actual official high and low records may vary slightly from our data, if they occured in-between our weather recording intervals... More about our weather records

Ibiza Weather History for the Previous 24 Hours

Scroll right to see more
 ConditionsComfort  
Time TempWeatherWind HumidityBarometerVisibility
11:00 pm
Tue, Aug 9
82 °FClear.8 mph79%30.01 "Hg10 mi
10:00 pm82 °FPassing clouds.6 mph74%30.01 "HgN/A
9:30 pm82 °FPassing clouds.7 mph74%30.01 "HgN/A
9:00 pm84 °FPassing clouds.6 mph70%30.01 "HgN/A
8:30 pm84 °FPassing clouds.7 mph70%30.01 "HgN/A
8:00 pm86 °FPassing clouds.7 mph66%30.01 "HgN/A
7:00 pm86 °FPassing clouds.8 mph66%30.01 "HgN/A
6:00 pm88 °FPassing clouds.7 mph59%30.01 "HgN/A
5:30 pm88 °FPassing clouds.7 mph62%30.01 "HgN/A
5:00 pm88 °FPassing clouds.10 mph66%30.01 "HgN/A
4:00 pm90 °FPassing clouds.13 mph63%30.04 "HgN/A
3:30 pm90 °FPassing clouds.13 mph59%30.04 "HgN/A
3:00 pm90 °FPassing clouds.13 mph63%30.04 "HgN/A
2:30 pm90 °FPassing clouds.13 mph59%30.04 "HgN/A
2:00 pm90 °FPassing clouds.14 mph63%30.04 "HgN/A
1:00 pm90 °FPassing clouds.15 mph59%30.04 "HgN/A
12:30 pm90 °FSunny.16 mph63%30.04 "Hg10 mi
12:00 pm90 °FPassing clouds.14 mph63%30.04 "HgN/A
11:30 am90 °FPassing clouds.12 mph59%30.04 "HgN/A
11:00 am88 °FPassing clouds.12 mph59%30.04 "HgN/A
10:00 am88 °FPassing clouds.6 mph52%30.01 "HgN/A
9:30 am88 °FPassing clouds.7 mph46%30.01 "HgN/A
9:00 am84 °FPassing clouds.5 mph62%30.01 "HgN/A
8:30 am81 °FSunny.1 mph74%30.01 "Hg10 mi
8:00 am77 °FSunny.1 mph79%30.01 "Hg10 mi
7:00 am73 °FClear.No wind83%30.01 "Hg10 mi
6:30 am73 °FClear.1 mph89%29.98 "Hg10 mi
6:00 am73 °FPassing clouds.3 mph89%30.01 "HgN/A
5:30 am73 °FClear.No wind89%30.01 "Hg10 mi
5:00 am73 °FClear.No wind89%30.01 "Hg10 mi
4:30 am75 °FClear.No wind83%30.01 "Hg10 mi
4:00 am75 °FClear.1 mph89%30.01 "Hg10 mi
3:30 am75 °FPassing clouds.3 mph89%30.01 "HgN/A
3:00 am77 °FClear.5 mph83%30.01 "Hg10 mi
1:30 am79 °FClear.1 mph79%30.01 "Hg10 mi
1:00 am81 °FPassing clouds.3 mph79%30.01 "HgN/A
12:30 am81 °FClear.3 mph79%30.01 "Hg10 mi
12:00 am81 °FPassing clouds.3 mph79%30.01 "HgN/A
Weather by CustomWeather, © 2022

See weather overview